createdAt,value
2023-02-14T00:02:03.386Z,28.90
2023-02-14T00:07:08.831Z,25.58
2023-02-14T00:12:13.694Z,28.23
2023-02-14T00:17:18.852Z,25.63
2023-02-14T00:22:22.788Z,28.30
2023-02-14T00:27:27.263Z,25.70
2023-02-14T00:32:31.768Z,23.58
2023-02-14T00:37:37.885Z,45.92
2023-02-14T00:42:43.318Z,27.40
2023-02-14T00:47:47.558Z,43.08
2023-02-14T00:52:51.104Z,37.78
2023-02-14T00:57:55.195Z,36.50
2023-02-14T01:02:58.679Z,24.77
2023-02-14T01:08:02.471Z,42.88
2023-02-14T01:13:08.398Z,39.90
2023-02-14T01:18:13.444Z,27.27
2023-02-14T01:23:19.771Z,31.63
2023-02-14T01:28:27.267Z,25.13
2023-02-14T01:33:31.184Z,27.60
2023-02-14T01:38:36.680Z,27.13
2023-02-14T01:44:16.413Z,29.35
2023-02-14T01:49:36.888Z,34.35
2023-02-14T01:54:46.494Z,22.17
2023-02-14T02:00:18.191Z,22.23
2023-02-14T02:05:25.274Z,42.03
2023-02-14T02:10:29.903Z,47.15
2023-02-14T02:15:50.512Z,55.97
2023-02-14T02:21:03.115Z,46.97
2023-02-14T02:26:32.477Z,45.80
2023-02-14T02:31:43.760Z,58.05
2023-02-14T02:37:39.197Z,37.13
2023-02-14T02:43:14.968Z,34.97
2023-02-14T02:48:24.450Z,52.25
2023-02-14T02:53:46.044Z,44.28
2023-02-14T02:59:02.164Z,63.72
2023-02-14T03:04:29.364Z,63.75
2023-02-14T03:09:33.077Z,41.97
2023-02-14T03:14:47.137Z,43.53
2023-02-14T03:20:29.586Z,58.72
2023-02-14T03:25:53.220Z,48.65
2023-02-14T03:31:11.479Z,42.88
2023-02-14T03:36:49.033Z,36.42
2023-02-14T03:42:06.277Z,35.67
2023-02-14T03:47:15.272Z,29.13
2023-02-14T03:52:21.170Z,29.67
2023-02-14T03:57:41.141Z,30.60
2023-02-14T04:02:50.662Z,30.55
2023-02-14T04:07:57.582Z,34.13
2023-02-14T04:13:01.404Z,30.30
2023-02-14T04:18:25.037Z,30.88
2023-02-14T04:23:29.416Z,32.15
2023-02-14T04:28:34.714Z,33.13
2023-02-14T04:33:39.774Z,57.38
2023-02-14T04:38:44.707Z,52.55
2023-02-14T04:43:49.093Z,67.57
2023-02-14T04:48:54.467Z,42.72
2023-02-14T04:53:59.975Z,48.63
2023-02-14T04:59:04.946Z,35.58
2023-02-14T05:04:09.800Z,40.53
2023-02-14T05:09:14.606Z,38.55
2023-02-14T05:14:18.910Z,33.13
2023-02-14T05:19:24.956Z,38.03
2023-02-14T05:24:29.760Z,31.85
2023-02-14T05:29:34.262Z,44.00
2023-02-14T05:34:38.258Z,35.38
2023-02-14T05:39:42.732Z,32.10
2023-02-14T05:44:49.535Z,37.28
2023-02-14T05:49:54.265Z,51.00
2023-02-14T05:54:58.838Z,34.75
2023-02-14T06:00:07.287Z,32.90
2023-02-14T06:05:19.371Z,33.75
2023-02-14T06:10:25.921Z,30.10
2023-02-14T06:15:30.274Z,60.10
2023-02-14T06:20:34.673Z,54.85
2023-02-14T06:25:38.801Z,57.55
2023-02-14T06:30:43.067Z,65.93
2023-02-14T06:35:48.640Z,51.45
2023-02-14T06:40:53.290Z,33.17
2023-02-14T06:45:58.372Z,55.03
2023-02-14T06:51:03.315Z,65.95
2023-02-14T06:56:08.806Z,48.38
2023-02-14T07:01:12.738Z,41.22
2023-02-14T07:06:17.990Z,41.42
2023-02-14T07:11:23.093Z,38.90
2023-02-14T07:16:28.516Z,74.75
2023-02-14T07:21:32.408Z,69.70
2023-02-14T07:26:37.410Z,70.63
2023-02-14T07:31:46.795Z,50.60
2023-02-14T07:36:56.636Z,85.45
2023-02-14T07:42:01.581Z,61.50
2023-02-14T07:47:10.060Z,65.45
2023-02-14T07:52:15.472Z,57.90
2023-02-14T07:57:19.770Z,53.63
2023-02-14T08:02:24.935Z,60.22
2023-02-14T08:07:30.640Z,42.30
2023-02-14T08:12:54.438Z,50.47
2023-02-14T08:17:59.558Z,41.72
2023-02-14T08:23:04.268Z,47.10
2023-02-14T08:28:08.940Z,52.13
2023-02-14T08:33:13.289Z,44.70
2023-02-14T08:38:20.792Z,50.97
2023-02-14T08:43:26.315Z,39.28
2023-02-14T08:48:31.321Z,30.83
2023-02-14T08:53:35.956Z,28.48
2023-02-14T08:58:40.393Z,30.42
2023-02-14T09:03:45.452Z,27.92
2023-02-14T09:08:50.040Z,27.13
2023-02-14T09:13:54.469Z,29.73
2023-02-14T09:18:59.512Z,27.83
2023-02-14T09:24:04.236Z,29.33
2023-02-14T09:29:08.850Z,27.75
2023-02-14T09:34:13.813Z,27.33
2023-02-14T09:39:19.034Z,32.53
2023-02-14T09:44:51.308Z,31.08
2023-02-14T09:49:56.239Z,24.98
2023-02-14T09:55:03.203Z,34.10
2023-02-14T10:00:31.222Z,28.25
2023-02-14T10:05:45.056Z,30.80
2023-02-14T10:11:01.702Z,23.35
2023-02-14T10:16:26.843Z,31.60
2023-02-14T10:21:49.672Z,25.83
2023-02-14T10:27:01.670Z,29.15
2023-02-14T10:32:15.515Z,27.55
2023-02-14T10:37:51.954Z,26.88
2023-02-14T10:43:10.829Z,26.48
2023-02-14T10:48:48.417Z,25.75
2023-02-14T10:54:33.790Z,21.98
2023-02-14T11:00:00.481Z,22.08
2023-02-14T11:05:08.397Z,21.60
2023-02-14T11:10:16.342Z,21.75
2023-02-14T11:15:22.880Z,20.40
2023-02-14T11:20:30.716Z,19.50
2023-02-14T11:25:37.207Z,18.15
2023-02-14T11:30:46.207Z,20.17
2023-02-14T11:35:53.977Z,19.50
2023-02-14T11:41:00.021Z,20.95
2023-02-14T11:46:16.289Z,20.17
2023-02-14T11:51:28.991Z,18.15
2023-02-14T11:57:07.687Z,17.90
2023-02-14T12:02:27.007Z,21.48
2023-02-14T12:07:38.443Z,19.10
2023-02-14T12:13:04.684Z,21.85
2023-02-14T12:18:30.067Z,27.58
2023-02-14T12:23:46.393Z,18.52
2023-02-14T12:29:12.531Z,21.05
2023-02-14T12:34:21.708Z,16.58
2023-02-14T12:40:09.917Z,22.67
2023-02-14T12:45:48.998Z,19.38
2023-02-14T12:51:05.995Z,19.52
2023-02-14T12:56:21.690Z,21.58
2023-02-14T13:01:43.414Z,19.33
2023-02-14T13:07:45.033Z,17.60
2023-02-14T13:13:11.588Z,23.05
2023-02-14T13:18:36.055Z,22.67
2023-02-14T13:23:46.836Z,24.80
2023-02-14T13:29:06.852Z,16.92
2023-02-14T13:34:32.714Z,19.23
2023-02-14T13:39:43.406Z,16.27
2023-02-14T13:50:32.707Z,22.20
2023-02-14T13:55:43.556Z,20.80
2023-02-14T14:00:50.467Z,21.40
2023-02-14T14:06:11.990Z,17.50
2023-02-14T14:11:22.853Z,15.83
2023-02-14T14:16:37.692Z,13.98
2023-02-14T14:22:00.952Z,20.15
2023-02-14T14:27:14.684Z,18.55
2023-02-14T14:32:19.698Z,18.98
2023-02-14T14:37:26.929Z,19.75
2023-02-14T14:42:36.916Z,23.30
2023-02-14T14:47:46.261Z,28.17
2023-02-14T14:52:54.753Z,23.85
2023-02-14T14:58:05.779Z,23.23
2023-02-14T15:03:13.396Z,25.77
2023-02-14T15:08:32.720Z,29.10
2023-02-14T15:13:50.242Z,19.92
2023-02-14T15:19:12.208Z,20.80
2023-02-14T15:24:17.812Z,29.70
2023-02-14T15:29:23.450Z,28.33
2023-02-14T15:34:55.592Z,30.08
2023-02-14T15:40:00.474Z,26.70
2023-02-14T15:45:28.261Z,31.70
2023-02-14T15:50:36.224Z,22.50
2023-02-14T15:55:40.358Z,24.45
2023-02-14T16:00:45.590Z,38.33
2023-02-14T16:05:51.456Z,31.13
2023-02-14T16:11:10.450Z,31.83
2023-02-14T16:16:16.231Z,29.38
2023-02-14T16:21:31.863Z,20.25
2023-02-14T16:26:39.696Z,20.98
2023-02-14T16:32:14.138Z,19.92
2023-02-14T16:37:30.151Z,21.63
2023-02-14T16:42:37.745Z,26.58
2023-02-14T16:47:42.490Z,25.65
2023-02-14T16:52:51.823Z,24.95
2023-02-14T16:57:56.494Z,27.15
2023-02-14T17:03:06.395Z,26.60
2023-02-14T17:08:13.490Z,29.75
2023-02-14T17:13:25.534Z,23.98
2023-02-14T17:23:36.823Z,24.85
2023-02-14T17:28:41.058Z,23.73
2023-02-14T17:33:45.935Z,25.33
2023-02-14T17:38:50.704Z,23.73
2023-02-14T17:43:56.286Z,39.03
2023-02-14T17:49:04.878Z,44.97
2023-02-14T17:54:13.903Z,36.63
2023-02-14T17:59:19.502Z,27.63
2023-02-14T18:04:23.813Z,24.23
2023-02-14T18:09:28.485Z,24.60
2023-02-14T18:14:34.095Z,31.05
2023-02-14T18:19:39.587Z,27.50
2023-02-14T18:24:43.593Z,36.03
2023-02-14T18:29:48.595Z,33.17
2023-02-14T18:34:55.810Z,40.58
2023-02-14T18:40:01.607Z,32.47
2023-02-14T18:45:07.152Z,34.95
2023-02-14T18:50:11.900Z,28.02
2023-02-14T18:55:17.350Z,51.88
2023-02-14T19:00:25.250Z,36.35
